ADDS METAR Data INFO
IDs: Format: Raw Decoded Include TAF

Data at: 0716 UTC 24 Jun 2018

KGNB 240710Z AUTO 00000KT 10SM OVC110 11/03 A3015 RMK AO2 T01110030
KGNB 240655Z AUTO 31003KT 10SM VCTS BKN120 11/03 A3016 RMK AO2 LTG DSNT N T01100030 402530003
KGNB 240635Z AUTO 01006KT 10SM CLR 11/03 A3013 RMK AO2 LTG DSNT NE AND NW T01140031
KGNB 240610Z AUTO 35003KT 10SM CLR 11/02 A3012 RMK AO2 T01080015
KGNB 240555Z AUTO 00000KT 10SM CLR 12/02 A3011 RMK AO2 LTG DSNT NW T01190016 10234 20117
KGNB 240530Z AUTO 10004KT 10SM BKN100 13/02 A3010 RMK AO2 T01310022
KGNB 240510Z AUTO 19005KT 10SM OVC100 13/03 A3012 RMK AO2 T01320025
KGNB 240455Z AUTO 00000KT 10SM OVC110 14/02 A3011 RMK AO2 T01410019
KGNB 240435Z AUTO 06004KT 10SM SCT060 SCT085 OVC110 14/02 A3010 RMK AO2 T01430015
KGNB 240415Z AUTO 09006KT 10SM SCT095 SCT120 13/03 A3008 RMK AO2 T01270026
KGNB 240355Z AUTO 11005KT 10SM SCT120 13/02 A3008 RMK AO2 T01330017
KGNB 240330Z AUTO 00000KT 10SM SCT120 14/02 A3008 RMK AO2 T01440015
KGNB 240305Z AUTO 22003KT 10SM CLR 15/01 A3007 RMK AO2 T01460014
KGNB 240250Z AUTO 00000KT 10SM SCT100 SCT120 15/02 A3007 RMK AO2 T01470017
KGNB 240230Z AUTO 06007KT 10SM BKN110 16/02 A3007 RMK AO2 T01570015
KGNB 240210Z AUTO 01009KT 10SM BKN110 16/02 A3008 RMK AO2 T01610016
KGNB 240155Z AUTO 03007KT 10SM BKN110 17/01 A3007 RMK AO2 T01650008
KGNB 240135Z AUTO 03009KT 10SM SCT100 17/01 A3007 RMK AO2 T01660006
KGNB 240110Z AUTO 30012G22KT 10SM SCT100 OVC120 21/M03 A3008 RMK AO2 T02121027
KGNB 240050Z AUTO 25010KT 10SM BKN120 21/M04 A3006 RMK AO2 LTG DSNT N T02071039
KGNB 240030Z AUTO 16003KT 10SM CLR 19/M01 A3005 RMK AO2 T01921012
KGNB 240010Z AUTO 33005KT 10SM SCT095 SCT110 22/M02 A3005 RMK AO2 T02151022
KGNB 232355Z AUTO 25008KT 220V310 10SM SCT095 BKN110 23/M02 A3006 RMK AO2 T02281025 10253 20194
KGNB 232330Z AUTO 25014G19KT 10SM SCT120 23/M03 A3007 RMK AO2 T02341033
KGNB 232315Z AUTO 24010G22KT 10SM SCT100 SCT120 24/M04 A3007 RMK AO2 T02351042
KGNB 232250Z AUTO 27011G16KT 10SM OVC110 23/M04 A3008 RMK AO2 T02311040
KGNB 232230Z AUTO 22010G19KT 10SM SCT120 22/M04 A3008 RMK AO2 T02201040
KGNB 232210Z AUTO 24011G19KT 10SM SCT110 24/M04 A3008 RMK AO2 T02441038
KGNB 232155Z AUTO 23012G18KT 200V270 10SM SCT120 24/M03 A3008 RMK AO2 T02431028
KGNB 232130Z AUTO 25015G22KT 10SM SCT120 24/M03 A3008 RMK AO2 T02441029
KGNB 232110Z AUTO 24010G21KT 10SM SCT110 24/M02 A3009 RMK AO2 T02441020
KGNB 232050Z AUTO 24010G17KT 10SM SCT100 SCT120 24/M01 A3010 RMK AO2 T02361015
KGNB 232030Z AUTO 24009G18KT 210V270 10SM SCT090 23/M01 A3011 RMK AO2 T02301014
KGNB 232010Z AUTO 32006KT 10SM SCT090 22/M01 A3011 RMK AO2 T02221012
KGNB 231955Z AUTO 29013G19KT 10SM SCT085 21/M01 A3012 RMK AO2 T02121011
KGNB 231935Z AUTO 30008KT 10SM SCT085 20/M01 A3013 RMK AO2 T01981009
KGNB 231910Z AUTO 31013G20KT 10SM SCT085 20/M01 A3014 RMK AO2 T02031006
KGNB 231850Z AUTO 29009G17KT 240V340 10SM SCT085 21/00 A3015 RMK AO2 T02071004
KGNB 231830Z AUTO 32008KT 10SM CLR 20/M01 A3016 RMK AO2 T02041006
KGNB 231810Z AUTO 28009G17KT 10SM CLR 20/00 A3017 RMK AO2 T02001004
KGNB 231750Z AUTO 25011G17KT 10SM CLR 20/M01 A3018 RMK AO2 T02001010 10205 20003
KGNB 231730Z AUTO 26011G20KT 10SM CLR 20/M01 A3018 RMK AO2 T01971014
KGNB 231710Z AUTO 28013G20KT 10SM CLR 20/M01 A3018 RMK AO2 T01991009
KGNB 231655Z AUTO 25010G15KT 220V280 10SM CLR 19/M01 A3018 RMK AO2 T01941010
KGNB 231635Z AUTO 27008G14KT 10SM CLR 19/00 A3018 RMK AO2 T01910000
KGNB 231615Z AUTO 22006KT 10SM CLR 17/01 A3018 RMK AO2 T01680008
KGNB 231555Z AUTO 00000KT 10SM CLR 15/02 A3018 RMK AO2 T01520015
KGNB 231535Z AUTO 00000KT 10SM CLR 15/01 A3019 RMK AO2 T01450009
KGNB 231510Z AUTO 00000KT 10SM CLR 13/02 A3020 RMK AO2 T01300015
KGNB 231450Z AUTO 00000KT 10SM CLR 11/01 A3020 RMK AO2 T01070007
KGNB 231430Z AUTO 00000KT 10SM CLR 10/00 A3020 RMK AO2 T00970003
KGNB 231410Z AUTO 00000KT 10SM CLR 08/00 A3021 RMK AO2 T00820001
KGNB 231355Z AUTO 00000KT 10SM CLR 08/00 A3021 RMK AO2 T00760001
KGNB 231335Z AUTO 00000KT 10SM CLR 06/00 A3022 RMK AO2 T00640001
KGNB 231315Z AUTO 00000KT 10SM CLR 05/00 A3021 RMK AO2 T00510000
KGNB 231250Z AUTO 00000KT 10SM CLR 04/00 A3020 RMK AO2 T00351005
KGNB 231230Z AUTO 00000KT 10SM CLR 03/M01 A3020 RMK AO2 T00251006
KGNB 231210Z AUTO 00000KT 10SM CLR 01/M01 A3020 RMK AO2 T00131008
KGNB 231155Z AUTO 07004KT 10SM CLR 01/M01 A3020 RMK AO2 T00071013 10084 20006
KGNB 231135Z AUTO 00000KT 10SM CLR 02/M01 A3020 RMK AO2 T00191011
KGNB 231110Z AUTO 00000KT 10SM CLR 01/M01 A3020 RMK AO2 T00101011
KGNB 231050Z AUTO 00000KT 10SM CLR 02/M01 A3020 RMK AO2 T00171014
KGNB 231030Z AUTO 14003KT 10SM CLR 03/M01 A3020 RMK AO2 T00271012
KGNB 231010Z AUTO 00000KT 10SM CLR 02/M01 A3020 RMK AO2 T00211009
KGNB 230950Z AUTO 08003KT 10SM CLR 03/M01 A3020 RMK AO2 T00251008
KGNB 230930Z AUTO 00000KT 10SM CLR 03/M01 A3020 RMK AO2 T00261008
KGNB 230910Z AUTO 00000KT 10SM CLR 03/M01 A3020 RMK AO2 T00331011
KGNB 230855Z AUTO 00000KT 10SM CLR 04/M01 A3020 RMK AO2 T00351012
KGNB 230835Z AUTO 00000KT 10SM CLR 04/M01 A3020 RMK AO2 T00391006
KGNB 230810Z AUTO 09003KT 10SM CLR 04/M01 A3020 RMK AO2 T00441006
KGNB 230755Z AUTO 03003KT 10SM CLR 04/00 A3021 RMK AO2 T00411005
KGNB 230735Z AUTO 00000KT 10SM CLR 06/M01 A3021 RMK AO2 T00561010
KGNB 230710Z AUTO 00000KT 10SM CLR 06/M01 A3021 RMK AO2 T00591011
KGNB 230655Z AUTO 00000KT 10SM CLR 08/M01 A3021 RMK AO2 T00751013 402390069
KGNB 230635Z AUTO 15004KT 10SM CLR 08/M01 A3022 RMK AO2 T00751011
KGNB 230610Z AUTO 09003KT 10SM CLR 08/M01 A3022 RMK AO2 T00831012
KGNB 230550Z AUTO 13005KT 10SM CLR 09/M01 A3022 RMK AO2 T00901015 10223 20090
KGNB 230530Z AUTO 14005KT 10SM CLR 10/M02 A3022 RMK AO2 T01031017
KGNB 230510Z AUTO 11004KT 10SM CLR 11/M02 A3022 RMK AO2 T01051016
KGNB 230455Z AUTO 10003KT 10SM CLR 10/M02 A3022 RMK AO2 T01041017
KGNB 230435Z AUTO 12005KT 10SM CLR 11/M02 A3022 RMK AO2 T01071018
KGNB 230410Z AUTO 00000KT 10SM CLR 14/M02 A3022 RMK AO2 T01421022
KGNB 230355Z AUTO 34003KT 10SM CLR 15/M03 A3021 RMK AO2 T01531028
KGNB 230335Z AUTO 00000KT 10SM CLR 14/M02 A3020 RMK AO2 T01421025
KGNB 230310Z AUTO 00000KT 10SM CLR 15/M03 A3018 RMK AO2 T01531033
KGNB 230250Z AUTO 26003KT 10SM CLR 15/M03 A3018 RMK AO2 T01521032
KGNB 230230Z AUTO 28008KT 10SM CLR 17/M04 A3017 RMK AO2 T01661037
KGNB 230215Z AUTO 30006KT 10SM CLR 18/M04 A3016 RMK AO2 T01761040
KGNB 230155Z AUTO 30009KT 10SM CLR 19/M03 A3016 RMK AO2 T01851030
KGNB 230135Z AUTO 31010G19KT 10SM CLR 20/M03 A3015 RMK AO2 T01961028
KGNB 230115Z AUTO 30013G23KT 10SM CLR 20/M02 A3015 RMK AO2 T01981023
KGNB 230050Z AUTO 30014G24KT 10SM CLR 21/M01 A3014 RMK AO2 T02071015
KGNB 230030Z AUTO 31016G22KT 10SM CLR 21/M01 A3013 RMK AO2 T02111012
KGNB 230010Z AUTO 31017G27KT 10SM SCT110 21/M02 A3013 RMK AO2 T02131023
KGNB 222345Z AUTO 29016G24KT 10SM SCT100 22/M02 A3013 RMK AO2 T02201022
KGNB 222335Z AUTO 29013G24KT 10SM CLR 22/M02 A3013 RMK AO2 LTG DSNT N T02221018
KGNB 222310Z AUTO 30017G28KT 10SM SCT100 22/M02 A3013 RMK AO2 T02201018
KGNB 222255Z AUTO 30012G26KT 10SM CLR 22/M02 A3013 RMK AO2 T02231021
KGNB 222230Z AUTO 31016G22KT 10SM CLR 23/M02 A3013 RMK AO2 T02301018
KGNB 222210Z AUTO 30014G27KT 10SM CLR 23/M02 A3013 RMK AO2 T02291020
KGNB 222155Z AUTO 29018G27KT 10SM CLR 23/M03 A3014 RMK AO2 T02281026
KGNB 222135Z AUTO 30017G29KT 10SM CLR 23/M02 A3013 RMK AO2 T02311022
KGNB 222115Z AUTO 31017G27KT 10SM CLR 23/M02 A3013 RMK AO2 T02321024
KGNB 222055Z AUTO 30014G27KT 10SM CLR 23/M02 A3014 RMK AO2 LTG DSNT SE T02341023
KGNB 222030Z AUTO 29020G25KT 10SM SCT085 23/M01 A3014 RMK AO2 T02321007
KGNB 222015Z AUTO 27014G26KT 10SM SCT085 23/01 A3014 RMK AO2 T02310007
KGNB 221955Z AUTO 29013G28KT 10SM CLR 23/01 A3014 RMK AO2 T02260010
KGNB 221935Z AUTO 26017G27KT 10SM SCT100 SCT120 23/01 A3015 RMK AO2 T02330009